Schedule Details

Flight Number: CPX231
Departure: Phoenix Sky Harbor International Airport (KPHX) at N/A
Arrival: Chicago/Rockford International Airport (KRFD) at N/A
Route: BROAK1 MAXXO ACH J231 LBL J19 ICT J26 IRK J232 MZV PLL


Current Weather Information
KPHX 180551Z 17008KT 10SM BKN100 BKN120 11/M02 A2992 RMK AO2 SLP126 T01061017 10144 20100 53001
KRFD 180623Z 35010KT 2SM -SN BR OVC041 M07/M09 A3004 RMK AO2 P0001 T10671089

Route Map